Time;durP1;ratioP1;P1;durP2;ratioP2;P2;SDS_P1;SDS_P2;PMS_P1;PMS_P2;Temp;Humidity;BMP_temperature;BMP_pressure;BME280_temperature;BME280_humidity;BME280_pressure;Samples;Min_cycle;Max_cycle;Signal;HPM_P1;HPM_P2
2023/06/27 00:00:13;;;;;;;18.05;9.10;;;;;;;19.26;nan;100288.09;5034634;28;20048;-68
2023/06/27 00:02:43;;;;;;;14.38;8.45;;;;;;;19.21;nan;100285.47;5036150;28;20120;-68
2023/06/27 00:05:08;;;;;;;13.57;8.05;;;;;;;19.13;nan;100285.03;5034027;28;20025;-68
2023/06/27 00:07:34;;;;;;;12.55;8.52;;;;;;;19.18;nan;100292.19;5034606;28;20027;-68
2023/06/27 00:09:59;;;;;;;15.93;8.75;;;;;;;19.13;nan;100289.56;5036245;28;20057;-68
2023/06/27 00:12:25;;;;;;;15.05;8.75;;;;;;;19.08;nan;100292.28;5033857;28;20424;-68
2023/06/27 00:14:50;;;;;;;13.43;8.18;;;;;;;19.13;nan;100309.06;5037388;28;20041;-69
2023/06/27 00:17:16;;;;;;;12.13;8.48;;;;;;;19.07;nan;100293.38;5036617;28;20045;-68
2023/06/27 00:19:46;;;;;;;14.27;8.55;;;;;;;19.09;nan;100291.22;5038841;28;20055;-68
2023/06/27 00:22:11;;;;;;;16.67;8.68;;;;;;;19.06;nan;100300.59;5034519;28;20032;-68
2023/06/27 00:24:38;;;;;;;19.65;8.32;;;;;;;19.05;nan;100298.19;5043264;28;20016;-67
2023/06/27 00:27:05;;;;;;;12.70;8.45;;;;;;;18.90;nan;100275.94;5035121;28;20091;-69
2023/06/27 00:29:32;;;;;;;16.33;8.32;;;;;;;18.96;nan;100289.22;5037274;28;20020;-69
2023/06/27 00:31:57;;;;;;;16.27;8.52;;;;;;;18.83;nan;100275.47;5034836;28;20010;-69
2023/06/27 00:34:22;;;;;;;16.40;8.23;;;;;;;18.83;nan;100280.81;5033380;28;20036;-68
2023/06/27 00:36:48;;;;;;;16.17;8.57;;;;;;;18.84;nan;100284.25;5033414;28;20009;-69
2023/06/27 00:39:13;;;;;;;12.80;8.07;;;;;;;18.84;nan;100281.59;5033747;28;20006;-68
2023/06/27 00:41:39;;;;;;;13.50;8.85;;;;;;;18.80;nan;100285.94;5038059;28;20053;-68
2023/06/27 00:44:07;;;;;;;14.55;8.25;;;;;;;18.79;nan;100287.00;5033196;28;20033;-69
2023/06/27 00:46:35;;;;;;;15.02;8.30;;;;;;;18.77;nan;100283.81;5036651;28;20589;-68
2023/06/27 00:49:02;;;;;;;15.25;8.10;;;;;;;18.63;nan;100273.00;5036154;28;20064;-68
2023/06/27 00:51:27;;;;;;;14.20;8.52;;;;;;;18.71;nan;100288.38;5036378;28;20021;-70
2023/06/27 00:53:53;;;;;;;11.80;7.75;;;;;;;18.66;nan;100280.44;5036359;28;20369;-68
2023/06/27 00:56:19;;;;;;;13.57;9.15;;;;;;;18.62;nan;100276.72;5035266;28;20036;-68
2023/06/27 00:58:45;;;;;;;13.68;8.35;;;;;;;18.58;nan;100273.84;5035302;28;20017;-69
2023/06/27 01:01:10;;;;;;;17.10;9.25;;;;;;;18.53;nan;100271.19;5031488;28;20029;-69
2023/06/27 01:03:36;;;;;;;14.50;9.20;;;;;;;18.39;nan;100259.59;5033298;28;20095;-68
2023/06/27 01:06:08;;;;;;;14.68;9.10;;;;;;;18.46;nan;100281.38;5033624;28;20025;-68
2023/06/27 01:08:44;;;;;;;15.18;9.52;;;;;;;18.40;nan;100274.53;5034232;28;20082;-68
2023/06/27 01:11:20;;;;;;;13.88;8.75;;;;;;;18.30;nan;100267.41;5038435;28;20511;-68
2023/06/27 01:13:52;;;;;;;13.45;9.20;;;;;;;18.30;nan;100278.06;5037800;28;20109;-69
2023/06/27 01:16:22;;;;;;;12.25;8.95;;;;;;;18.21;nan;100272.53;5041045;28;20025;-69
2023/06/27 01:18:48;;;;;;;13.48;9.05;;;;;;;18.07;nan;100263.59;5041965;28;20017;-68
2023/06/27 01:21:16;;;;;;;11.95;8.95;;;;;;;18.09;nan;100281.97;5037454;28;20025;-69
2023/06/27 01:23:58;;;;;;;11.93;8.77;;;;;;;18.03;nan;100274.00;5039700;28;20036;-69
2023/06/27 01:26:24;;;;;;;14.18;9.48;;;;;;;18.00;nan;100273.75;5037217;28;20444;-69
2023/06/27 01:28:50;;;;;;;12.85;9.60;;;;;;;17.95;nan;100271.13;5037637;28;20105;-69
2023/06/27 01:31:40;;;;;;;16.88;8.63;;;;;;;17.76;nan;100246.97;5039244;28;20014;-69
2023/06/27 01:34:13;;;;;;;14.55;8.65;;;;;;;17.86;nan;100268.25;5039861;28;20025;-69
2023/06/27 01:36:46;;;;;;;14.82;9.40;;;;;;;17.74;nan;100257.94;5035903;28;20672;-69
2023/06/27 01:39:50;;;;;;;12.68;8.30;;;;;;;17.78;nan;100268.81;5038354;28;20028;-69
2023/06/27 01:42:18;;;;;;;14.80;8.55;;;;;;;17.75;nan;100264.06;5041156;28;20029;-68
2023/06/27 01:44:46;;;;;;;12.48;8.98;;;;;;;17.71;nan;100274.44;5040497;28;20017;-69
2023/06/27 01:47:13;;;;;;;12.75;8.68;;;;;;;17.69;nan;100273.13;5036599;28;20102;-69
2023/06/27 01:49:38;;;;;;;18.75;9.63;;;;;;;17.68;nan;100280.31;5038184;28;20060;-70
2023/06/27 01:52:05;;;;;;;13.60;8.77;;;;;;;17.65;nan;100268.34;5037331;28;20110;-71
2023/06/27 01:54:30;;;;;;;14.02;8.85;;;;;;;17.64;nan;100273.94;5036123;28;20485;-69
2023/06/27 01:56:55;;;;;;;17.02;9.73;;;;;;;17.65;nan;100268.34;5035531;28;20049;-71
2023/06/27 01:59:21;;;;;;;16.85;9.07;;;;;;;17.59;nan;100263.31;5039161;28;20069;-71
2023/06/27 02:01:46;;;;;;;15.63;8.77;;;;;;;17.54;nan;100264.16;5040612;28;20503;-71
2023/06/27 02:04:12;;;;;;;19.02;8.55;;;;;;;17.39;nan;100264.25;5039507;28;20577;-71
2023/06/27 02:06:37;;;;;;;18.13;8.43;;;;;;;17.36;nan;100265.59;5037279;28;20025;-71
2023/06/27 02:09:04;;;;;;;14.00;8.85;;;;;;;17.38;nan;100260.78;5034839;28;20018;-71
2023/06/27 02:11:29;;;;;;;18.33;9.05;;;;;;;17.36;nan;100268.25;5052079;28;20110;-71
2023/06/27 02:13:54;;;;;;;13.45;8.85;;;;;;;17.35;nan;100274.63;5039574;28;20053;-71
2023/06/27 02:16:20;;;;;;;15.98;8.70;;;;;;;17.33;nan;100267.97;5034907;28;20053;-71
2023/06/27 02:18:45;;;;;;;19.00;9.70;;;;;;;17.30;nan;100263.22;5036809;28;20013;-69
2023/06/27 02:21:11;;;;;;;14.68;8.57;;;;;;;17.27;nan;100266.44;5035751;28;20071;-71
2023/06/27 02:23:36;;;;;;;17.20;9.13;;;;;;;17.22;nan;100265.38;5038024;28;20112;-71
2023/06/27 02:26:03;;;;;;;16.63;8.57;;;;;;;17.13;nan;100259.00;5034630;28;20022;-71
2023/06/27 02:28:29;;;;;;;12.73;8.45;;;;;;;17.12;nan;100262.75;5037024;28;20013;-69
2023/06/27 02:30:54;;;;;;;15.55;9.13;;;;;;;17.13;nan;100263.53;5044974;28;20029;-71
2023/06/27 02:33:20;;;;;;;19.50;9.18;;;;;;;17.11;nan;100263.00;5037103;28;20036;-70
2023/06/27 02:35:45;;;;;;;12.70;8.13;;;;;;;16.99;nan;100268.63;5071312;28;20017;-71
2023/06/27 02:38:11;;;;;;;13.60;7.95;;;;;;;16.91;nan;100262.00;5039139;28;20020;-69
2023/06/27 02:40:36;;;;;;;13.68;8.30;;;;;;;16.94;nan;100271.31;5038709;28;20028;-71
2023/06/27 02:43:02;;;;;;;19.75;7.93;;;;;;;17.00;nan;100272.91;5035755;28;20412;-71
2023/06/27 02:45:27;;;;;;;20.90;8.73;;;;;;;16.99;nan;100276.63;5042077;28;20025;-71
2023/06/27 02:47:52;;;;;;;14.18;8.02;;;;;;;16.99;nan;100265.97;5039581;28;20013;-70
2023/06/27 02:50:18;;;;;;;11.52;7.60;;;;;;;16.96;nan;100271.84;5036761;28;20376;-69
2023/06/27 02:52:43;;;;;;;13.50;7.93;;;;;;;16.87;nan;100260.94;5033468;28;20062;-69
2023/06/27 02:55:08;;;;;;;15.75;8.73;;;;;;;16.89;nan;100274.00;5039968;28;20029;-69
2023/06/27 02:57:34;;;;;;;14.77;7.78;;;;;;;16.74;nan;100249.00;5038792;28;20013;-69
2023/06/27 02:59:59;;;;;;;17.52;8.20;;;;;;;16.95;nan;100278.22;5036078;28;20431;-70
2023/06/27 03:02:25;;;;;;;16.00;8.70;;;;;;;16.88;nan;100283.84;5038306;28;20124;-69
2023/06/27 03:04:50;;;;;;;17.55;8.27;;;;;;;16.62;nan;100247.66;5034833;28;20033;-70
2023/06/27 03:07:16;;;;;;;12.48;7.80;;;;;;;16.84;nan;100289.97;5035680;28;20071;-71
2023/06/27 03:09:41;;;;;;;16.23;8.45;;;;;;;16.80;nan;100271.84;5038035;28;20056;-68
2023/06/27 03:12:07;;;;;;;13.27;8.60;;;;;;;16.85;nan;100283.56;5036773;28;20026;-70
2023/06/27 03:14:33;;;;;;;13.75;7.78;;;;;;;16.77;nan;100264.41;5038121;28;20491;-71
2023/06/27 03:16:58;;;;;;;18.00;8.20;;;;;;;16.85;nan;100278.25;5039610;28;20033;-71
2023/06/27 03:19:23;;;;;;;12.30;7.57;;;;;;;16.84;nan;100274.00;5036790;28;20016;-70
2023/06/27 03:21:49;;;;;;;14.13;8.02;;;;;;;16.84;nan;100282.78;5034922;28;20052;-70
2023/06/27 03:24:14;;;;;;;15.50;8.05;;;;;;;16.63;nan;100263.34;5035232;28;20495;-69
2023/06/27 03:26:39;;;;;;;13.98;8.65;;;;;;;16.69;nan;100293.38;5034182;28;20994;-69
2023/06/27 03:29:05;;;;;;;13.15;7.75;;;;;;;16.67;nan;100295.53;5037832;28;20017;-70
2023/06/27 03:31:30;;;;;;;15.32;7.95;;;;;;;16.59;nan;100292.34;5035821;28;20041;-69
2023/06/27 03:33:57;;;;;;;14.95;8.52;;;;;;;16.63;nan;100299.78;5037622;28;20071;-70
2023/06/27 03:36:24;;;;;;;12.38;8.60;;;;;;;16.46;nan;100268.97;5036794;28;20372;-69
2023/06/27 03:38:50;;;;;;;23.58;8.48;;;;;;;16.59;nan;100294.19;5034589;28;20475;-70
2023/06/27 03:41:16;;;;;;;18.98;8.50;;;;;;;16.59;nan;100302.16;5035424;28;20483;-69
2023/06/27 03:43:41;;;;;;;12.77;8.07;;;;;;;16.59;nan;100303.00;5037844;28;20030;-68
2023/06/27 03:46:07;;;;;;;14.00;8.40;;;;;;;16.58;nan;100300.59;5037979;28;20050;-70
2023/06/27 03:48:33;;;;;;;14.35;7.63;;;;;;;16.61;nan;100301.91;5036220;28;20025;-69
2023/06/27 03:50:58;;;;;;;17.42;7.63;;;;;;;16.63;nan;100289.94;5035981;28;20017;-72
2023/06/27 03:53:23;;;;;;;12.55;8.13;;;;;;;16.67;nan;100314.16;5035443;28;20017;-70
2023/06/27 03:55:49;;;;;;;12.38;8.13;;;;;;;16.67;nan;100298.19;5036008;28;20032;-70
2023/06/27 03:58:14;;;;;;;16.92;8.23;;;;;;;16.73;nan;100297.91;5038544;28;20021;-69
2023/06/27 04:00:42;;;;;;;17.77;8.07;;;;;;;16.71;nan;100297.41;5033649;28;20483;-69
2023/06/27 04:03:08;;;;;;;15.98;8.05;;;;;;;16.78;nan;100305.06;5035349;28;20029;-70
2023/06/27 04:05:33;;;;;;;15.82;8.15;;;;;;;16.83;nan;100301.66;5036176;28;20021;-69
2023/06/27 04:07:58;;;;;;;19.00;7.90;;;;;;;16.79;nan;100296.09;5035640;28;20379;-69
2023/06/27 04:10:24;;;;;;;13.40;8.48;;;;;;;16.94;nan;100311.22;5036143;28;20049;-70
2023/06/27 04:12:49;;;;;;;17.40;8.77;;;;;;;16.75;nan;100279.81;5036959;28;20068;-70
2023/06/27 04:15:14;;;;;;;17.15;8.25;;;;;;;16.96;nan;100311.75;5037564;28;20044;-70
2023/06/27 04:17:40;;;;;;;19.73;8.77;;;;;;;17.04;nan;100308.53;5034468;28;20029;-70
2023/06/27 04:20:06;;;;;;;23.27;8.68;;;;;;;17.12;nan;100313.31;5035466;28;20531;-70
2023/06/27 04:22:32;;;;;;;21.05;9.20;;;;;;;17.11;nan;100298.38;5033983;28;20522;-70
2023/06/27 04:24:57;;;;;;;21.00;8.32;;;;;;;17.26;nan;100304.72;5034861;28;20029;-69
2023/06/27 04:27:22;;;;;;;13.57;7.88;;;;;;;17.23;nan;100292.75;5035097;28;20017;-69
2023/06/27 04:29:48;;;;;;;13.23;8.18;;;;;;;17.27;nan;100290.38;5036464;28;20410;-69
2023/06/27 04:32:13;;;;;;;13.52;7.78;;;;;;;17.38;nan;100311.34;5037229;28;20029;-70
2023/06/27 04:34:39;;;;;;;16.15;8.30;;;;;;;17.40;nan;100297.75;5038776;28;20685;-69
2023/06/27 04:37:04;;;;;;;13.70;8.10;;;;;;;17.55;nan;100310.19;5034916;28;20051;-70
2023/06/27 04:39:30;;;;;;;18.90;8.32;;;;;;;17.59;nan;100296.06;5035407;28;20024;-69
2023/06/27 04:41:56;;;;;;;17.50;7.88;;;;;;;17.73;nan;100309.59;5032860;28;20020;-70
2023/06/27 04:44:22;;;;;;;12.38;8.02;;;;;;;17.82;nan;100312.50;5044666;28;20037;-70
2023/06/27 04:46:48;;;;;;;29.40;10.27;;;;;;;17.97;nan;100306.28;5039719;28;20504;-70
2023/06/27 04:49:13;;;;;;;15.88;7.40;;;;;;;17.99;nan;100296.94;5038667;28;20017;-68
2023/06/27 04:51:39;;;;;;;14.85;7.60;;;;;;;18.10;nan;100311.00;5039002;28;20381;-70
2023/06/27 04:54:04;;;;;;;13.85;7.78;;;;;;;18.10;nan;100294.22;5038015;28;20068;-70
2023/06/27 04:56:29;;;;;;;27.55;9.52;;;;;;;18.20;nan;100302.16;5040602;28;20009;-68
2023/06/27 04:58:55;;;;;;;21.35;7.35;;;;;;;18.19;nan;100297.88;5038827;28;20220;-69
2023/06/27 05:01:20;;;;;;;16.02;8.07;;;;;;;18.32;nan;100302.59;5040037;28;20060;-70
2023/06/27 05:03:46;;;;;;;13.77;7.70;;;;;;;18.40;nan;100307.31;5036745;28;20044;-70
2023/06/27 05:06:11;;;;;;;14.52;7.45;;;;;;;18.47;nan;100305.13;5036009;28;20018;-72
2023/06/27 05:08:37;;;;;;;13.57;8.02;;;;;;;18.59;nan;100315.41;5040096;28;20543;-71
2023/06/27 05:11:03;;;;;;;15.60;7.57;;;;;;;18.67;nan;100317.47;5037612;28;20049;-70
2023/06/27 05:13:31;;;;;;;15.30;8.23;;;;;;;18.71;nan;100307.03;5036154;28;20029;-72
2023/06/27 05:15:57;;;;;;;13.38;8.68;;;;;;;18.76;nan;100307.03;5047813;28;20031;-71
2023/06/27 05:18:23;;;;;;;13.55;8.70;;;;;;;18.87;nan;100310.41;5070906;28;20353;-71
2023/06/27 05:20:48;;;;;;;22.90;9.00;;;;;;;18.97;nan;100314.84;5038206;28;20017;-71
2023/06/27 05:23:14;;;;;;;16.05;8.75;;;;;;;19.00;nan;100306.25;5038463;28;20092;-71
2023/06/27 05:25:40;;;;;;;15.20;8.77;;;;;;;19.05;nan;100312.31;5038149;28;20038;-70
2023/06/27 05:28:05;;;;;;;16.60;8.95;;;;;;;19.09;nan;100301.91;5036872;28;20024;-70
2023/06/27 05:30:32;;;;;;;16.65;9.55;;;;;;;19.09;nan;100302.69;5038392;28;20744;-72
2023/06/27 05:32:58;;;;;;;14.48;9.52;;;;;;;19.21;nan;100310.28;5039153;28;20028;-71
2023/06/27 05:35:24;;;;;;;15.93;9.32;;;;;;;19.28;nan;100309.97;5039706;28;20018;-70
2023/06/27 05:37:50;;;;;;;19.92;9.02;;;;;;;19.41;nan;100316.47;5038693;28;20032;-71
2023/06/27 05:40:15;;;;;;;15.88;9.50;;;;;;;19.45;nan;100309.47;5038322;28;20074;-71
2023/06/27 05:42:41;;;;;;;13.32;8.65;;;;;;;19.54;nan;100319.25;5037798;28;20037;-70
2023/06/27 05:45:07;;;;;;;15.35;9.45;;;;;;;19.55;nan;100317.38;5036607;28;20037;-72
2023/06/27 05:47:32;;;;;;;18.17;9.77;;;;;;;19.64;nan;100317.53;5039789;28;20021;-71
2023/06/27 05:49:57;;;;;;;15.98;9.77;;;;;;;19.64;nan;100304.16;5035857;28;20522;-71
2023/06/27 05:52:23;;;;;;;17.02;9.77;;;;;;;19.76;nan;100321.38;5036615;28;20022;-70
2023/06/27 05:54:50;;;;;;;20.55;10.88;;;;;;;19.80;nan;100313.59;5033182;28;20396;-69
2023/06/27 05:57:15;;;;;;;20.48;10.55;;;;;;;19.91;nan;100328.41;5035523;28;20187;-72
2023/06/27 05:59:40;;;;;;;16.35;9.75;;;;;;;20.01;nan;100329.34;5039358;28;20510;-70
2023/06/27 06:02:06;;;;;;;15.05;10.07;;;;;;;20.06;nan;100324.69;5036996;28;20041;-69
2023/06/27 06:04:31;;;;;;;14.70;9.85;;;;;;;20.34;nan;100320.25;5034548;28;20104;-71
2023/06/27 06:07:00;;;;;;;19.33;9.77;;;;;;;20.37;nan;100326.91;5035592;28;20498;-71
2023/06/27 06:09:26;;;;;;;14.43;10.20;;;;;;;20.38;nan;100331.97;5038492;28;20143;-71
2023/06/27 06:11:51;;;;;;;14.52;9.65;;;;;;;20.46;nan;100327.06;5040194;28;20105;-71
2023/06/27 06:14:17;;;;;;;14.60;9.20;;;;;;;20.51;nan;100330.44;5035157;28;20732;-71
2023/06/27 06:16:42;;;;;;;17.15;9.57;;;;;;;20.51;nan;100314.38;5037550;28;20029;-71
2023/06/27 06:19:08;;;;;;;18.80;10.18;;;;;;;20.51;nan;100298.31;5035340;28;20025;-70
2023/06/27 06:21:34;;;;;;;17.67;9.73;;;;;;;20.64;nan;100304.03;5035918;28;20036;-69
2023/06/27 06:23:59;;;;;;;17.73;9.85;;;;;;;20.73;nan;100304.94;5037461;28;20029;-69
2023/06/27 06:26:25;;;;;;;19.52;10.68;;;;;;;20.82;nan;100306.63;5037141;28;20096;-71
2023/06/27 06:28:50;;;;;;;13.55;9.60;;;;;;;20.89;nan;100298.22;5038155;28;20025;-71
2023/06/27 06:31:16;;;;;;;15.13;9.27;;;;;;;21.01;nan;100303.09;5039155;28;20021;-71
2023/06/27 06:33:45;;;;;;;12.68;8.82;;;;;;;21.08;nan;100306.16;5034350;28;20018;-71
2023/06/27 06:36:12;;;;;;;13.77;9.32;;;;;;;21.21;nan;100301.88;5037037;28;20005;-71
2023/06/27 06:38:38;;;;;;;12.98;8.90;;;;;;;21.45;nan;100297.16;5041204;28;20036;-70
2023/06/27 06:41:03;;;;;;;13.23;9.50;;;;;;;21.38;nan;100282.53;5037550;28;20025;-70
2023/06/27 06:43:28;;;;;;;15.10;9.02;;;;;;;21.62;nan;100307.25;5038052;28;20033;-70
2023/06/27 06:45:54;;;;;;;16.25;8.70;;;;;;;21.68;nan;100307.91;5033255;28;20060;-70
2023/06/27 06:48:20;;;;;;;13.57;8.80;;;;;;;21.76;nan;100312.56;5037485;28;20029;-70
2023/06/27 06:50:47;;;;;;;14.07;8.98;;;;;;;21.99;nan;100312.59;5068756;28;20017;-70
2023/06/27 06:53:12;;;;;;;13.75;8.60;;;;;;;22.01;nan;100313.09;5036873;28;20056;-71
2023/06/27 06:55:38;;;;;;;12.80;7.32;;;;;;;22.04;nan;100305.22;5035996;28;20043;-70
2023/06/27 06:58:04;;;;;;;23.83;9.43;;;;;;;22.18;nan;100321.28;5035279;28;20425;-70
2023/06/27 07:00:29;;;;;;;14.52;7.57;;;;;;;22.17;nan;100305.47;5037541;28;20922;-70
2023/06/27 07:02:55;;;;;;;13.75;8.02;;;;;;;22.26;nan;100312.50;5045107;28;20136;-71
2023/06/27 07:05:20;;;;;;;13.43;7.80;;;;;;;22.37;nan;100306.91;5033457;28;20017;-71
2023/06/27 07:07:46;;;;;;;14.30;8.75;;;;;;;22.43;nan;100314.50;5037407;28;20025;-70
2023/06/27 07:10:11;;;;;;;10.45;7.30;;;;;;;22.49;nan;100309.81;5036673;28;20053;-71
2023/06/27 07:12:37;;;;;;;11.75;7.60;;;;;;;22.54;nan;100304.31;5036506;28;20028;-70
2023/06/27 07:15:02;;;;;;;12.77;8.23;;;;;;;22.71;nan;100303.63;5035490;28;20020;-70
2023/06/27 07:17:28;;;;;;;14.40;7.75;;;;;;;22.89;nan;100316.03;5037033;28;20017;-71
2023/06/27 07:19:53;;;;;;;13.60;7.72;;;;;;;22.96;nan;100315.56;5037486;28;20863;-70
2023/06/27 07:22:19;;;;;;;11.80;8.65;;;;;;;23.03;nan;100315.94;5037298;28;20476;-70
2023/06/27 07:24:44;;;;;;;15.00;8.10;;;;;;;23.11;nan;100311.72;5035858;28;20451;-70
2023/06/27 07:27:09;;;;;;;16.42;8.00;;;;;;;23.13;nan;100302.25;5035916;28;20727;-71
2023/06/27 07:29:35;;;;;;;12.80;8.15;;;;;;;23.27;nan;100312.06;5037832;28;20100;-70
2023/06/27 07:32:01;;;;;;;12.48;7.95;;;;;;;23.42;nan;100306.28;5033063;28;20025;-70
2023/06/27 07:34:26;;;;;;;12.27;7.60;;;;;;;23.50;nan;100304.69;5036879;28;20476;-71
2023/06/27 07:36:52;;;;;;;12.20;7.63;;;;;;;23.58;nan;100303.91;5038947;28;20061;-70
2023/06/27 07:39:17;;;;;;;11.70;7.07;;;;;;;23.69;nan;100313.25;5036084;28;20021;-71
2023/06/27 07:41:43;;;;;;;12.15;7.78;;;;;;;23.77;nan;100299.06;5035608;28;20422;-70
2023/06/27 07:44:08;;;;;;;15.23;7.20;;;;;;;23.82;nan;100295.41;5034825;28;21298;-70
2023/06/27 07:46:33;;;;;;;8.95;7.25;;;;;;;23.94;nan;100314.44;5037240;28;20479;-71
2023/06/27 07:48:59;;;;;;;12.18;7.47;;;;;;;24.05;nan;100306.03;5036120;28;20094;-70
2023/06/27 07:51:26;;;;;;;12.25;7.45;;;;;;;24.09;nan;100297.00;5035889;28;20498;-70
2023/06/27 07:53:51;;;;;;;10.05;6.85;;;;;;;24.12;nan;100303.66;5035618;28;20474;-71
2023/06/27 07:56:17;;;;;;;14.70;7.65;;;;;;;24.23;nan;100307.59;5032498;28;20083;-71
2023/06/27 07:58:44;;;;;;;11.32;6.68;;;;;;;24.37;nan;100299.31;5038114;28;20079;-70
2023/06/27 08:01:10;;;;;;;12.32;7.25;;;;;;;24.46;nan;100307.38;5036611;28;20025;-69
2023/06/27 08:03:35;;;;;;;13.00;7.15;;;;;;;24.51;nan;100310.72;5036669;28;20439;-69
2023/06/27 08:06:03;;;;;;;12.20;7.70;;;;;;;24.58;nan;100305.63;5034820;28;20071;-69
2023/06/27 08:08:29;;;;;;;10.17;6.50;;;;;;;24.61;nan;100296.13;5035850;28;20558;-69
2023/06/27 08:10:56;;;;;;;8.68;6.57;;;;;;;24.70;nan;100306.88;5035027;28;20089;-69
2023/06/27 08:13:22;;;;;;;13.23;7.20;;;;;;;24.70;nan;100286.13;5033934;28;20464;-69
2023/06/27 08:15:47;;;;;;;10.18;7.13;;;;;;;24.87;nan;100311.41;5039417;28;20033;-69
2023/06/27 08:18:12;;;;;;;11.02;6.57;;;;;;;24.93;nan;100310.13;5035325;28;20021;-69
2023/06/27 08:20:38;;;;;;;12.07;6.97;;;;;;;24.98;nan;100318.03;5036646;28;20036;-69
2023/06/27 08:23:03;;;;;;;9.25;6.70;;;;;;;25.08;nan;100306.09;5032643;28;20454;-70
2023/06/27 08:25:28;;;;;;;8.65;6.20;;;;;;;25.11;nan;100306.22;5039892;28;20021;-69
2023/06/27 08:27:54;;;;;;;11.70;6.65;;;;;;;25.22;nan;100312.06;5034663;28;20028;-69
2023/06/27 08:30:19;;;;;;;8.73;6.25;;;;;;;25.29;nan;100319.66;5033792;28;20005;-70
2023/06/27 08:32:45;;;;;;;11.27;6.32;;;;;;;25.29;nan;100309.66;5036883;28;20067;-70
2023/06/27 08:35:11;;;;;;;8.43;5.90;;;;;;;25.40;nan;100307.34;5034526;28;20040;-70
2023/06/27 08:37:37;;;;;;;10.65;6.13;;;;;;;25.46;nan;100304.16;5035659;28;20079;-69
2023/06/27 08:40:02;;;;;;;10.73;6.13;;;;;;;25.50;nan;100304.28;5033374;28;20434;-70
2023/06/27 08:42:31;;;;;;;11.60;6.32;;;;;;;25.53;nan;100300.16;5035212;28;20071;-70
2023/06/27 08:44:57;;;;;;;;;;;;;;;25.66;nan;100305.25;5035511;28;20017;-70
2023/06/27 08:47:25;;;;;;;8.57;6.30;;;;;;;25.71;nan;100301.59;5041180;28;19901;-69
2023/06/27 08:49:56;;;;;;;13.90;6.75;;;;;;;25.75;nan;100285.53;5033625;28;20017;-70
2023/06/27 08:52:23;;;;;;;10.27;6.57;;;;;;;25.97;nan;100304.09;5043156;28;20052;-70
2023/06/27 08:54:53;;;;;;;9.73;6.47;;;;;;;26.12;nan;100315.41;5036191;28;20067;-70
2023/06/27 08:57:22;;;;;;;10.90;5.90;;;;;;;26.15;nan;100317.47;5034133;28;20097;-70
2023/06/27 08:59:48;;;;;;;;;;;;;;;26.23;nan;100319.28;5035705;28;20024;-69
2023/06/27 09:02:15;;;;;;;8.75;6.18;;;;;;;26.27;nan;100302.09;5035377;28;19901;-70
2023/06/27 09:04:42;;;;;;;8.57;5.97;;;;;;;26.30;nan;100303.31;5042103;28;20017;-69
2023/06/27 09:07:07;;;;;;;9.55;5.75;;;;;;;26.33;nan;100299.94;5035267;28;20028;-69
2023/06/27 09:09:34;;;;;;;8.88;6.50;;;;;;;26.37;nan;100300.88;5035198;28;20119;-69
2023/06/27 09:12:01;;;;;;;9.25;6.18;;;;;;;26.39;nan;100304.03;5034879;28;20037;-70
2023/06/27 09:14:27;;;;;;;9.63;6.03;;;;;;;26.48;nan;100301.22;5035155;28;20048;-69
2023/06/27 09:16:53;;;;;;;9.57;6.13;;;;;;;26.52;nan;100297.50;5034667;28;20045;-70
2023/06/27 09:19:20;;;;;;;9.00;6.68;;;;;;;26.59;nan;100302.41;5032348;28;20021;-69
2023/06/27 09:21:47;;;;;;;13.13;6.10;;;;;;;26.62;nan;100300.94;5033684;28;20534;-69
2023/06/27 09:24:14;;;;;;;7.50;6.03;;;;;;;26.68;nan;100305.78;5035606;28;20108;-69
2023/06/27 09:26:40;;;;;;;13.43;6.72;;;;;;;26.73;nan;100302.09;5032635;28;20023;-69
2023/06/27 09:29:05;;;;;;;8.32;6.40;;;;;;;26.78;nan;100292.97;5036433;28;20040;-69
2023/06/27 09:31:32;;;;;;;10.30;6.32;;;;;;;26.81;nan;100290.38;5039751;28;20029;-69
2023/06/27 09:34:06;;;;;;;9.65;6.15;;;;;;;26.91;nan;100298.06;5039910;28;20026;-69
2023/06/27 09:36:40;;;;;;;14.35;6.50;;;;;;;26.91;nan;100283.72;5037515;28;20025;-69
2023/06/27 09:39:08;;;;;;;11.45;6.03;;;;;;;27.02;nan;100301.09;5036827;28;20021;-69
2023/06/27 09:41:46;;;;;;;10.30;6.07;;;;;;;27.09;nan;100297.81;5037919;28;20435;-69
2023/06/27 09:44:13;;;;;;;10.98;6.53;;;;;;;27.17;nan;100294.19;5036640;28;20032;-69
2023/06/27 09:46:38;;;;;;;10.20;6.47;;;;;;;27.33;nan;100297.81;5036283;28;20030;-70
2023/06/27 09:49:08;;;;;;;11.70;6.47;;;;;;;27.43;nan;100306.59;5040918;28;20121;-69
2023/06/27 09:51:33;;;;;;;10.80;5.68;;;;;;;27.50;nan;100296.00;5038245;28;20018;-69
2023/06/27 09:53:59;;;;;;;10.50;6.68;;;;;;;27.58;nan;100295.06;5036129;28;20029;-69
2023/06/27 09:56:32;;;;;;;10.02;6.75;;;;;;;27.66;nan;100291.44;5038968;28;20027;-68
2023/06/27 09:59:11;;;;;;;9.45;6.35;;;;;;;27.66;nan;100286.03;5033939;28;20028;-69
2023/06/27 10:01:40;;;;;;;9.27;6.80;;;;;;;27.79;nan;100284.84;5038202;28;20024;-69
2023/06/27 10:04:06;;;;;;;;;;;;;;;27.84;nan;100274.94;5037543;28;20099;-69
2023/06/27 10:06:32;;;;;;;12.20;6.18;;;;;;;27.78;nan;100256.22;5034239;28;20800;-69
2023/06/27 10:08:59;;;;;;;7.82;6.15;;;;;;;27.82;nan;100267.13;5040124;28;20492;-71
2023/06/27 10:11:25;;;;;;;9.02;6.20;;;;;;;27.85;nan;100265.72;5038437;28;20507;-67
2023/06/27 10:13:51;;;;;;;11.00;5.80;;;;;;;27.86;nan;100259.16;5036970;28;20021;-70
2023/06/27 10:16:17;;;;;;;8.02;5.50;;;;;;;27.90;nan;100257.34;5036561;28;20028;-69
2023/06/27 10:18:43;;;;;;;7.60;6.20;;;;;;;27.93;nan;100248.53;5035818;28;20100;-69
2023/06/27 10:21:09;;;;;;;10.30;6.50;;;;;;;27.95;nan;100251.69;5043877;28;20538;-70
2023/06/27 10:23:37;;;;;;;8.57;5.70;;;;;;;28.02;nan;100253.78;5070448;28;20857;-70
2023/06/27 10:26:03;;;;;;;7.87;5.50;;;;;;;27.99;nan;100247.13;5036239;28;20716;-71
2023/06/27 10:28:32;;;;;;;6.85;5.80;;;;;;;28.03;nan;100253.44;5039216;28;20150;-70
2023/06/27 10:30:58;;;;;;;8.82;6.00;;;;;;;28.06;nan;100239.19;5040820;28;20028;-67
2023/06/27 10:33:28;;;;;;;11.50;6.20;;;;;;;28.17;nan;100248.38;5036910;28;20096;-70
2023/06/27 10:35:57;;;;;;;7.28;5.43;;;;;;;28.20;nan;100242.25;5039327;28;20029;-69
2023/06/27 10:38:23;;;;;;;11.63;5.95;;;;;;;28.20;nan;100231.44;5035095;28;20033;-69
2023/06/27 10:41:07;;;;;;;6.75;5.30;;;;;;;28.33;nan;100250.34;5034027;28;20037;-68
2023/06/27 10:43:52;;;;;;;7.28;5.82;;;;;;;28.41;nan;100242.03;5039311;28;20040;-68
2023/06/27 10:46:19;;;;;;;8.50;5.90;;;;;;;28.46;nan;100242.94;5036039;28;20026;-68
2023/06/27 10:49:06;;;;;;;8.50;6.13;;;;;;;28.51;nan;100246.16;5036696;28;20506;-68
2023/06/27 10:51:41;;;;;;;9.30;5.50;;;;;;;28.57;nan;100241.28;5035064;28;20017;-68
2023/06/27 10:54:12;;;;;;;10.30;5.45;;;;;;;28.62;nan;100238.31;5036467;28;20025;-68
2023/06/27 10:57:08;;;;;;;8.07;5.65;;;;;;;28.70;nan;100231.91;5038485;28;20132;-68
2023/06/27 10:59:34;;;;;;;7.68;4.90;;;;;;;28.71;nan;100227.25;5053258;28;20037;-69
2023/06/27 11:02:00;;;;;;;8.43;5.22;;;;;;;28.80;nan;100236.00;5037834;28;20379;-68
2023/06/27 11:04:39;;;;;;;10.40;5.05;;;;;;;28.85;nan;100235.72;5036989;28;20499;-69
2023/06/27 11:07:07;;;;;;;7.05;5.22;;;;;;;28.87;nan;100230.75;5034760;28;20021;-69
2023/06/27 11:09:35;;;;;;;7.13;5.40;;;;;;;29.01;nan;100230.28;5035930;28;20022;-68
2023/06/27 11:12:09;;;;;;;6.78;4.72;;;;;;;29.09;nan;100232.03;5036834;28;20506;-70
2023/06/27 11:14:38;;;;;;;7.40;5.50;;;;;;;29.17;nan;100233.75;5033878;28;20521;-69
2023/06/27 11:17:04;;;;;;;8.13;5.30;;;;;;;29.25;nan;100231.97;5039182;28;20549;-69
2023/06/27 11:19:33;;;;;;;5.85;4.47;;;;;;;29.30;nan;100226.28;5037830;28;20030;-69
2023/06/27 11:22:00;;;;;;;5.82;4.50;;;;;;;29.31;nan;100217.00;5034287;28;20030;-69
2023/06/27 11:24:26;;;;;;;7.63;4.47;;;;;;;29.41;nan;100212.94;5038874;28;20083;-69
2023/06/27 11:26:52;;;;;;;9.27;4.50;;;;;;;29.45;nan;100214.59;5035755;28;20402;-69
2023/06/27 11:29:18;;;;;;;6.53;4.63;;;;;;;29.49;nan;100201.09;5037505;28;20030;-69
2023/06/27 11:31:43;;;;;;;6.82;5.10;;;;;;;29.50;nan;100196.44;5035600;28;20412;-68
2023/06/27 11:34:09;;;;;;;9.45;4.55;;;;;;;29.58;nan;100200.88;5037827;28;20021;-69